| Date | Time | Temp. (oF) | Dew Point (oF) | Rel. Hum. (%) | Press. (in.) | Wind Dir. (deg.) | Wind Speed (mph) | Hourly Rainfall (i n.) |
|
|---|---|---|---|---|---|---|---|---|---|
| 1 | 11/03 | 24:00 | 54 | 41 | 63 | 29.63 | 310 | 7 | 0.00 |
| 2 | 11/02 | 23:00 | 55 | 41 | 61 | 29.63 | 300 | 10 | 0.00 |
| 3 | 11/02 | 22:00 | 57 | 46 | 68 | 29.58 | 310 | 6 | 0.00 |
| 4 | 11/02 | 21:00 | 64 | 52 | 66 | 29.57 | 280 | 16 | 0.00 |
| 5 | 11/02 | 20:00 | 64 | 60 | 88 | 29.49 | 250 | 10 | 0.00 |
| 6 | 11/02 | 19:00 | 65 | 61 | 90 | 29.49 | 140 | 10 | 0.02 |
| 7 | 11/02 | 18:00 | 67 | 65 | 94 | 29.48 | 10 | 9 | 0.22 |
| 8 | 11/02 | 17:00 | 67 | 65 | 95 | 29.47 | 130 | 18 | 0.29 |
| 9 | 11/02 | 16:00 | 66 | 64 | 95 | 29.54 | 310 | 10 | 0.16 |
| 10 | 11/02 | 15:00 | 66 | 63 | 92 | 29.61 | 170 | 9 | 0.00 |
| 11 | 11/02 | 14:00 | 67 | 63 | 89 | 29.70 | 150 | 6 | 0.01 |
| 12 | 11/02 | 13:00 | 64 | 61 | 91 | 29.77 | 120 | 2 | 0.00 |
| 13 | 11/02 | 12:00 | 65 | 61 | 90 | 29.82 | 90 | 9 | 0.00 |
| 14 | 11/02 | 11:00 | 65 | 60 | 85 | 29.90 | 90 | 4 | 0.00 |
| 15 | 11/02 | 10:00 | 64 | 60 | 87 | 29.93 | 180 | 6 | 0.00 |
| 16 | miss | miss | miss | miss | miss | miss | miss | miss | |
| 17 | 11/02 | 10:21 | 63 | 58 | 84 | 29.95 | 50 | 0 | 0.00 |
| 18 | miss | miss | miss | miss | miss | miss | miss | miss | |
| 19 | 11/02 | 10:19 | 63 | 58 | 84 | 29.96 | 50 | 0 | 0.00 |
| 20 | miss | miss | miss | miss | miss | miss | miss | miss | |
| 21 | 11/02 | 10:17 | 63 | 58 | 84 | 29.96 | 50 | 0 | 0.00 |
| 22 | miss | miss | miss | miss | miss | miss | miss | miss | |
| 23 | 11/02 | 10:15 | 63 | 58 | 84 | 29.96 | 50 | 0 | 0.00 |
| 24 | miss | miss | miss | miss | miss | miss | miss | miss | |
| 25 | 11/02 | 10:13 | 63 | 58 | 84 | 29.97 | 50 | 0 | 0.00 |
| 26 | miss | miss | miss | miss | miss | miss | miss | miss | |
| 27 | 11/02 | 10:13 | 63 | 58 | 84 | 29.97 | 50 | 0 | 0.00 |
| 28 | miss | miss | miss | miss | miss | miss | miss | miss | |
| 29 | 11/02 | 10:13 | 63 | 58 | 84 | 29.97 | 50 | 0 | 0.00 |
| 30 | miss | miss | miss | miss | miss | miss | miss | miss | |
| 31 | 11/02 | 10:13 | 63 | 58 | 84 | 29.97 | 50 | 0 | 0.00 |
| 32 | miss | miss | miss | miss | miss | miss | miss | miss | |
| 33 | 11/02 | 10:13 | 63 | 58 | 84 | 29.97 | 50 | 0 | 0.00 |
| 34 | miss | miss | miss | miss | miss | miss | miss | miss | |
| 35 | 11/02 | 10:13 | 63 | 58 | 84 | 29.97 | 50 | 0 | 0.00 |
| 36 | miss | miss | miss | miss | miss | miss | miss | miss | |
| 37 | 11/02 | 10:13 | 63 | 58 | 84 | 29.97 | 50 | 0 | 0.00 |
| 38 | miss | miss | miss | miss | miss | miss | miss | miss | |
| 39 | 11/02 | 10:00 | 62 | 57 | 85 | 29.98 | 130 | 0 | 0.00 |
| 40 | 11/02 | 09:00 | 61 | 58 | 92 | 30.03 | 150 | 0 | 0.00 |
| 41 | 11/02 | 08:00 | 59 | 56 | 92 | 30.06 | 150 | 0 | 0.00 |
| 42 | 11/02 | 07:00 | 59 | 56 | 91 | 30.08 | 100 | 1 | 0.00 |
| 43 | 11/02 | 06:00 | 59 | 56 | 90 | 30.10 | 110 | 0 | 0.00 |
| 44 | 11/02 | 05:00 | 58 | 54 | 89 | 30.12 | 110 | 0 | 0.00 |
| 45 | 11/02 | 04:00 | 58 | 54 | 87 | 30.14 | 110 | 0 | 0.00 |
| 46 | 11/02 | 03:00 | 58 | 53 | 86 | 30.15 | 110 | 0 | 0.00 |
| 47 | 11/02 | 02:00 | 57 | 51 | 83 | 30.17 | 110 | 0 | 0.00 |
| 48 | 11/02 | 01:00 | 56 | 50 | 82 | 30.19 | 110 | 0 | 0.00 |
| 49 | 11/02 | 24:00 | 56 | 50 | 81 | 30.21 | 110 | 0 | 0.00 |
| 50 | 11/01 | 23:00 | 57 | 49 | 77 | 30.22 | 110 | 0 | 0.00 |
| 51 | 11/01 | 22:00 | 58 | 49 | 74 | 30.25 | 110 | 0 | 0.00 |
| 52 | 11/01 | 21:00 | 59 | 49 | 71 | 30.25 | 110 | 0 | 0.00 |
| 53 | 11/01 | 20:00 | 63 | 50 | 64 | 30.26 | 110 | 0 | 0.00 |
| 54 | 11/01 | 19:00 | 62 | 50 | 65 | 30.26 | 110 | 0 | 0.00 |
| 55 | 11/01 | 18:00 | 68 | 51 | 56 | 30.27 | 110 | 1 | 0.00 |
| 56 | 11/01 | 17:00 | 71 | 52 | 53 | 30.28 | 150 | 1 | 0.00 |
| 57 | 11/01 | 16:00 | 71 | 51 | 51 | 30.30 | 150 | 2 | 0.00 |
| 58 | 11/01 | 15:00 | 73 | 50 | 46 | 30.31 | 100 | 0 | 0.00 |
| 59 | 11/01 | 14:00 | 71 | 51 | 50 | 30.32 | 130 | 2 | 0.00 |
| 60 | 11/01 | 13:00 | 70 | 50 | 51 | 30.35 | 150 | 1 | 0.00 |
| 61 | 11/01 | 12:00 | 68 | 51 | 55 | 30.38 | 130 | 0 | 0.00 |
| 62 | 11/01 | 11:00 | 64 | 52 | 67 | 30.38 | 150 | 1 | 0.00 |
| 63 | 11/01 | 10:00 | 60 | 53 | 78 | 30.38 | 310 | 0 | 0.00 |
| 64 | 11/01 | 09:00 | 56 | 51 | 84 | 30.38 | 310 | 1 | 0.00 |
| 65 | 11/01 | 08:00 | 55 | 49 | 81 | 30.35 | 310 | 0 | 0.00 |
| 66 | 11/01 | 07:00 | 53 | 48 | 86 | 30.34 | 310 | 1 | 0.00 |
| 67 | 11/01 | 06:00 | 54 | 49 | 86 | 30.33 | 310 | 0 | 0.00 |
| 68 | 11/01 | 05:00 | 56 | 51 | 85 | 30.33 | 310 | 0 | 0.00 |
| 69 | 11/01 | 04:00 | 57 | 51 | 83 | 30.32 | 310 | 0 | 0.00 |
| 70 | 11/01 | 03:00 | 59 | 53 | 82 | 30.33 | 310 | 0 | 0.00 |
| 71 | 11/01 | 02:00 | 58 | 52 | 81 | 30.34 | 310 | 0 | 0.00 |
| 72 | 11/01 | 01:00 | 60 | 53 | 79 | 30.34 | 310 | 0 | 0.00 |